sensor_id;sensor_type;location;lat;lon;timestamp;P1;durP1;ratioP1;P2;durP2;ratioP2
69463;SDS011;56665;41.106;16.688;2024-01-27T00:02:35;10.18;;;5.45;;
69463;SDS011;56665;41.106;16.688;2024-01-27T00:05:39;11.43;;;5.63;;
69463;SDS011;56665;41.106;16.688;2024-01-27T00:08:43;12.77;;;5.45;;
69463;SDS011;56665;41.106;16.688;2024-01-27T00:11:47;11.70;;;6.07;;
69463;SDS011;56665;41.106;16.688;2024-01-27T00:14:51;14.63;;;5.73;;
69463;SDS011;56665;41.106;16.688;2024-01-27T00:17:55;10.02;;;5.20;;
69463;SDS011;56665;41.106;16.688;2024-01-27T00:20:58;12.63;;;6.35;;
69463;SDS011;56665;41.106;16.688;2024-01-27T00:24:02;14.30;;;6.03;;
69463;SDS011;56665;41.106;16.688;2024-01-27T00:27:06;13.30;;;6.15;;
69463;SDS011;56665;41.106;16.688;2024-01-27T00:30:10;14.27;;;6.30;;
69463;SDS011;56665;41.106;16.688;2024-01-27T00:33:15;13.70;;;6.25;;
69463;SDS011;56665;41.106;16.688;2024-01-27T00:36:18;14.02;;;6.15;;
69463;SDS011;56665;41.106;16.688;2024-01-27T00:39:22;12.45;;;6.78;;
69463;SDS011;56665;41.106;16.688;2024-01-27T00:42:27;12.70;;;6.60;;
69463;SDS011;56665;41.106;16.688;2024-01-27T00:45:30;15.93;;;7.40;;
69463;SDS011;56665;41.106;16.688;2024-01-27T00:48:35;11.90;;;6.85;;
69463;SDS011;56665;41.106;16.688;2024-01-27T00:51:38;14.70;;;7.05;;
69463;SDS011;56665;41.106;16.688;2024-01-27T00:54:43;14.10;;;6.85;;
69463;SDS011;56665;41.106;16.688;2024-01-27T00:57:46;14.40;;;7.22;;
69463;SDS011;56665;41.106;16.688;2024-01-27T01:00:50;13.40;;;6.53;;
69463;SDS011;56665;41.106;16.688;2024-01-27T01:03:54;14.32;;;6.97;;
69463;SDS011;56665;41.106;16.688;2024-01-27T01:06:57;14.35;;;7.45;;
69463;SDS011;56665;41.106;16.688;2024-01-27T01:10:02;14.75;;;6.80;;
69463;SDS011;56665;41.106;16.688;2024-01-27T01:13:06;13.00;;;7.00;;
69463;SDS011;56665;41.106;16.688;2024-01-27T01:16:09;13.63;;;7.00;;
69463;SDS011;56665;41.106;16.688;2024-01-27T01:19:13;15.30;;;7.13;;
69463;SDS011;56665;41.106;16.688;2024-01-27T01:22:16;15.70;;;7.43;;
69463;SDS011;56665;41.106;16.688;2024-01-27T01:25:20;15.20;;;7.28;;
69463;SDS011;56665;41.106;16.688;2024-01-27T01:28:24;16.45;;;7.47;;
69463;SDS011;56665;41.106;16.688;2024-01-27T01:31:28;14.77;;;7.10;;
69463;SDS011;56665;41.106;16.688;2024-01-27T01:34:31;20.80;;;8.30;;
69463;SDS011;56665;41.106;16.688;2024-01-27T01:37:37;19.33;;;7.90;;
69463;SDS011;56665;41.106;16.688;2024-01-27T01:40:41;16.63;;;8.27;;
69463;SDS011;56665;41.106;16.688;2024-01-27T01:43:44;13.82;;;7.50;;
69463;SDS011;56665;41.106;16.688;2024-01-27T01:46:48;13.40;;;7.50;;
69463;SDS011;56665;41.106;16.688;2024-01-27T01:49:52;15.25;;;8.15;;
69463;SDS011;56665;41.106;16.688;2024-01-27T01:52:56;14.63;;;7.32;;
69463;SDS011;56665;41.106;16.688;2024-01-27T01:56:00;16.80;;;7.38;;
69463;SDS011;56665;41.106;16.688;2024-01-27T01:59:06;14.93;;;7.93;;
69463;SDS011;56665;41.106;16.688;2024-01-27T02:02:11;14.90;;;7.47;;
69463;SDS011;56665;41.106;16.688;2024-01-27T02:05:15;13.90;;;7.63;;
69463;SDS011;56665;41.106;16.688;2024-01-27T02:08:19;14.90;;;7.57;;
69463;SDS011;56665;41.106;16.688;2024-01-27T02:11:23;16.17;;;7.70;;
69463;SDS011;56665;41.106;16.688;2024-01-27T02:14:26;16.95;;;7.50;;
69463;SDS011;56665;41.106;16.688;2024-01-27T02:17:30;19.53;;;7.77;;
69463;SDS011;56665;41.106;16.688;2024-01-27T02:20:34;19.27;;;8.60;;
69463;SDS011;56665;41.106;16.688;2024-01-27T02:23:38;15.50;;;7.53;;
69463;SDS011;56665;41.106;16.688;2024-01-27T02:26:42;20.00;;;9.18;;
69463;SDS011;56665;41.106;16.688;2024-01-27T02:29:45;22.45;;;9.52;;
69463;SDS011;56665;41.106;16.688;2024-01-27T02:32:49;18.07;;;9.40;;
69463;SDS011;56665;41.106;16.688;2024-01-27T02:35:53;18.58;;;8.27;;
69463;SDS011;56665;41.106;16.688;2024-01-27T02:38:57;18.60;;;8.48;;
69463;SDS011;56665;41.106;16.688;2024-01-27T02:42:00;15.68;;;7.97;;
69463;SDS011;56665;41.106;16.688;2024-01-27T02:45:04;16.50;;;8.15;;
69463;SDS011;56665;41.106;16.688;2024-01-27T02:48:09;16.97;;;8.67;;
69463;SDS011;56665;41.106;16.688;2024-01-27T02:51:12;14.68;;;8.05;;
69463;SDS011;56665;41.106;16.688;2024-01-27T02:54:16;16.17;;;8.23;;
69463;SDS011;56665;41.106;16.688;2024-01-27T02:57:19;14.00;;;7.80;;
69463;SDS011;56665;41.106;16.688;2024-01-27T03:00:23;15.15;;;7.97;;
69463;SDS011;56665;41.106;16.688;2024-01-27T03:03:27;18.03;;;8.97;;
69463;SDS011;56665;41.106;16.688;2024-01-27T03:06:32;17.50;;;8.13;;
69463;SDS011;56665;41.106;16.688;2024-01-27T03:09:36;18.27;;;8.95;;
69463;SDS011;56665;41.106;16.688;2024-01-27T03:12:40;19.08;;;8.57;;
69463;SDS011;56665;41.106;16.688;2024-01-27T03:15:44;18.85;;;9.13;;
69463;SDS011;56665;41.106;16.688;2024-01-27T03:18:48;16.70;;;9.00;;
69463;SDS011;56665;41.106;16.688;2024-01-27T03:21:52;19.10;;;9.32;;
69463;SDS011;56665;41.106;16.688;2024-01-27T03:24:55;14.35;;;8.40;;
69463;SDS011;56665;41.106;16.688;2024-01-27T03:27:59;18.48;;;9.40;;
69463;SDS011;56665;41.106;16.688;2024-01-27T03:31:04;18.02;;;9.07;;
69463;SDS011;56665;41.106;16.688;2024-01-27T03:34:07;14.57;;;8.33;;
69463;SDS011;56665;41.106;16.688;2024-01-27T03:37:11;17.90;;;9.48;;
69463;SDS011;56665;41.106;16.688;2024-01-27T03:40:15;18.92;;;9.30;;
69463;SDS011;56665;41.106;16.688;2024-01-27T03:43:19;19.65;;;10.10;;
69463;SDS011;56665;41.106;16.688;2024-01-27T03:46:23;18.05;;;9.52;;
69463;SDS011;56665;41.106;16.688;2024-01-27T03:49:26;21.20;;;10.40;;
69463;SDS011;56665;41.106;16.688;2024-01-27T03:52:30;21.80;;;10.70;;
69463;SDS011;56665;41.106;16.688;2024-01-27T03:55:34;21.38;;;11.82;;
69463;SDS011;56665;41.106;16.688;2024-01-27T03:58:37;23.20;;;11.68;;
69463;SDS011;56665;41.106;16.688;2024-01-27T04:01:41;29.02;;;14.23;;
69463;SDS011;56665;41.106;16.688;2024-01-27T04:04:45;23.20;;;11.53;;
69463;SDS011;56665;41.106;16.688;2024-01-27T04:07:49;22.00;;;12.70;;
69463;SDS011;56665;41.106;16.688;2024-01-27T04:10:54;25.00;;;12.65;;
69463;SDS011;56665;41.106;16.688;2024-01-27T04:13:58;24.42;;;12.32;;
69463;SDS011;56665;41.106;16.688;2024-01-27T04:17:02;25.85;;;13.68;;
69463;SDS011;56665;41.106;16.688;2024-01-27T04:20:07;26.00;;;12.83;;
69463;SDS011;56665;41.106;16.688;2024-01-27T04:23:12;28.42;;;13.90;;
69463;SDS011;56665;41.106;16.688;2024-01-27T04:26:16;24.88;;;13.57;;
69463;SDS011;56665;41.106;16.688;2024-01-27T04:29:19;32.00;;;14.90;;
69463;SDS011;56665;41.106;16.688;2024-01-27T04:32:23;33.95;;;16.38;;
69463;SDS011;56665;41.106;16.688;2024-01-27T04:35:27;40.40;;;16.73;;
69463;SDS011;56665;41.106;16.688;2024-01-27T04:38:31;46.40;;;20.65;;
69463;SDS011;56665;41.106;16.688;2024-01-27T04:41:34;58.90;;;23.48;;
69463;SDS011;56665;41.106;16.688;2024-01-27T04:44:40;87.07;;;30.35;;
69463;SDS011;56665;41.106;16.688;2024-01-27T04:47:44;83.65;;;31.42;;
69463;SDS011;56665;41.106;16.688;2024-01-27T04:50:48;76.40;;;28.80;;
69463;SDS011;56665;41.106;16.688;2024-01-27T04:53:52;57.47;;;24.17;;
69463;SDS011;56665;41.106;16.688;2024-01-27T04:56:56;45.08;;;20.35;;
69463;SDS011;56665;41.106;16.688;2024-01-27T05:00:00;37.28;;;16.98;;
69463;SDS011;56665;41.106;16.688;2024-01-27T05:03:04;32.90;;;15.18;;
69463;SDS011;56665;41.106;16.688;2024-01-27T05:06:10;28.97;;;14.97;;
69463;SDS011;56665;41.106;16.688;2024-01-27T05:09:14;31.17;;;14.70;;
69463;SDS011;56665;41.106;16.688;2024-01-27T05:12:19;28.92;;;15.32;;
69463;SDS011;56665;41.106;16.688;2024-01-27T05:15:23;27.10;;;14.40;;
69463;SDS011;56665;41.106;16.688;2024-01-27T05:18:26;29.33;;;14.00;;
69463;SDS011;56665;41.106;16.688;2024-01-27T05:21:30;29.20;;;13.80;;
69463;SDS011;56665;41.106;16.688;2024-01-27T05:24:34;29.60;;;13.95;;
69463;SDS011;56665;41.106;16.688;2024-01-27T05:27:38;27.67;;;14.73;;
69463;SDS011;56665;41.106;16.688;2024-01-27T05:30:41;29.88;;;14.15;;
69463;SDS011;56665;41.106;16.688;2024-01-27T05:33:46;27.40;;;15.02;;
69463;SDS011;56665;41.106;16.688;2024-01-27T05:36:50;28.77;;;15.30;;
69463;SDS011;56665;41.106;16.688;2024-01-27T05:39:53;29.95;;;15.60;;
69463;SDS011;56665;41.106;16.688;2024-01-27T05:42:57;29.52;;;14.27;;
69463;SDS011;56665;41.106;16.688;2024-01-27T05:46:01;33.42;;;15.32;;
69463;SDS011;56665;41.106;16.688;2024-01-27T05:49:05;29.58;;;15.25;;
69463;SDS011;56665;41.106;16.688;2024-01-27T05:52:09;31.77;;;15.60;;
69463;SDS011;56665;41.106;16.688;2024-01-27T05:55:13;30.40;;;15.60;;
69463;SDS011;56665;41.106;16.688;2024-01-27T05:58:16;36.17;;;16.65;;
69463;SDS011;56665;41.106;16.688;2024-01-27T06:01:20;33.60;;;16.63;;
69463;SDS011;56665;41.106;16.688;2024-01-27T06:04:24;31.63;;;16.15;;
69463;SDS011;56665;41.106;16.688;2024-01-27T06:07:28;33.97;;;16.83;;
69463;SDS011;56665;41.106;16.688;2024-01-27T06:10:31;35.33;;;17.38;;
69463;SDS011;56665;41.106;16.688;2024-01-27T06:13:35;31.73;;;17.40;;
69463;SDS011;56665;41.106;16.688;2024-01-27T06:16:41;32.85;;;17.77;;
69463;SDS011;56665;41.106;16.688;2024-01-27T06:19:44;34.33;;;19.58;;
69463;SDS011;56665;41.106;16.688;2024-01-27T06:22:48;34.23;;;18.93;;
69463;SDS011;56665;41.106;16.688;2024-01-27T06:25:52;33.33;;;18.58;;
69463;SDS011;56665;41.106;16.688;2024-01-27T06:28:56;37.33;;;20.73;;
69463;SDS011;56665;41.106;16.688;2024-01-27T06:32:00;36.35;;;20.45;;
69463;SDS011;56665;41.106;16.688;2024-01-27T06:35:03;43.25;;;22.90;;
69463;SDS011;56665;41.106;16.688;2024-01-27T06:38:07;55.57;;;28.03;;
69463;SDS011;56665;41.106;16.688;2024-01-27T06:41:11;53.63;;;28.65;;
69463;SDS011;56665;41.106;16.688;2024-01-27T06:44:15;56.65;;;29.98;;
69463;SDS011;56665;41.106;16.688;2024-01-27T06:47:19;54.15;;;30.77;;
69463;SDS011;56665;41.106;16.688;2024-01-27T06:50:23;54.25;;;30.38;;
69463;SDS011;56665;41.106;16.688;2024-01-27T06:53:26;54.63;;;29.83;;
69463;SDS011;56665;41.106;16.688;2024-01-27T06:56:30;50.33;;;29.50;;
69463;SDS011;56665;41.106;16.688;2024-01-27T06:59:34;48.28;;;28.88;;
69463;SDS011;56665;41.106;16.688;2024-01-27T07:02:38;53.13;;;30.23;;
69463;SDS011;56665;41.106;16.688;2024-01-27T07:05:42;51.10;;;28.45;;
69463;SDS011;56665;41.106;16.688;2024-01-27T07:08:45;48.77;;;27.67;;
69463;SDS011;56665;41.106;16.688;2024-01-27T07:11:49;44.40;;;24.63;;
69463;SDS011;56665;41.106;16.688;2024-01-27T07:14:55;41.65;;;23.73;;
69463;SDS011;56665;41.106;16.688;2024-01-27T07:17:59;38.83;;;21.98;;
69463;SDS011;56665;41.106;16.688;2024-01-27T07:21:03;40.40;;;24.00;;
69463;SDS011;56665;41.106;16.688;2024-01-27T07:24:06;40.63;;;24.80;;
69463;SDS011;56665;41.106;16.688;2024-01-27T07:27:12;42.85;;;24.60;;
69463;SDS011;56665;41.106;16.688;2024-01-27T07:30:16;42.72;;;25.02;;
69463;SDS011;56665;41.106;16.688;2024-01-27T07:33:19;42.55;;;22.80;;
69463;SDS011;56665;41.106;16.688;2024-01-27T07:36:23;43.00;;;23.27;;
69463;SDS011;56665;41.106;16.688;2024-01-27T07:39:28;37.63;;;22.20;;
69463;SDS011;56665;41.106;16.688;2024-01-27T07:42:32;35.83;;;21.05;;
69463;SDS011;56665;41.106;16.688;2024-01-27T07:45:36;34.83;;;20.95;;
69463;SDS011;56665;41.106;16.688;2024-01-27T07:48:39;42.90;;;24.77;;
69463;SDS011;56665;41.106;16.688;2024-01-27T07:51:43;49.50;;;28.80;;
69463;SDS011;56665;41.106;16.688;2024-01-27T07:54:47;61.97;;;38.10;;
69463;SDS011;56665;41.106;16.688;2024-01-27T07:57:50;58.25;;;34.45;;
69463;SDS011;56665;41.106;16.688;2024-01-27T08:00:54;51.75;;;29.83;;
69463;SDS011;56665;41.106;16.688;2024-01-27T08:03:58;44.00;;;27.55;;
69463;SDS011;56665;41.106;16.688;2024-01-27T08:07:02;37.10;;;22.45;;
69463;SDS011;56665;41.106;16.688;2024-01-27T08:10:13;36.70;;;21.63;;
69463;SDS011;56665;41.106;16.688;2024-01-27T08:13:16;37.70;;;21.05;;
69463;SDS011;56665;41.106;16.688;2024-01-27T08:16:20;45.97;;;23.85;;
69463;SDS011;56665;41.106;16.688;2024-01-27T08:19:24;44.22;;;23.23;;
69463;SDS011;56665;41.106;16.688;2024-01-27T08:22:28;38.58;;;21.35;;
69463;SDS011;56665;41.106;16.688;2024-01-27T08:25:32;33.17;;;19.30;;
69463;SDS011;56665;41.106;16.688;2024-01-27T08:28:36;38.17;;;22.00;;
69463;SDS011;56665;41.106;16.688;2024-01-27T08:31:40;38.35;;;21.20;;
69463;SDS011;56665;41.106;16.688;2024-01-27T08:34:44;41.40;;;23.67;;
69463;SDS011;56665;41.106;16.688;2024-01-27T08:37:47;40.17;;;22.50;;
69463;SDS011;56665;41.106;16.688;2024-01-27T08:40:51;39.60;;;22.53;;
69463;SDS011;56665;41.106;16.688;2024-01-27T08:43:55;41.50;;;24.50;;
69463;SDS011;56665;41.106;16.688;2024-01-27T08:46:59;41.40;;;24.10;;
69463;SDS011;56665;41.106;16.688;2024-01-27T08:50:03;42.35;;;24.40;;
69463;SDS011;56665;41.106;16.688;2024-01-27T08:53:08;39.15;;;23.48;;
69463;SDS011;56665;41.106;16.688;2024-01-27T08:56:11;40.90;;;22.57;;
69463;SDS011;56665;41.106;16.688;2024-01-27T08:59:17;49.03;;;25.65;;
69463;SDS011;56665;41.106;16.688;2024-01-27T09:02:20;41.72;;;24.73;;
69463;SDS011;56665;41.106;16.688;2024-01-27T09:05:24;43.50;;;25.77;;
69463;SDS011;56665;41.106;16.688;2024-01-27T09:08:28;50.00;;;29.17;;
69463;SDS011;56665;41.106;16.688;2024-01-27T09:11:32;46.17;;;27.97;;
69463;SDS011;56665;41.106;16.688;2024-01-27T09:14:37;43.15;;;24.13;;
69463;SDS011;56665;41.106;16.688;2024-01-27T09:17:41;41.67;;;23.77;;
69463;SDS011;56665;41.106;16.688;2024-01-27T09:20:46;48.28;;;25.65;;
69463;SDS011;56665;41.106;16.688;2024-01-27T09:23:49;39.83;;;23.90;;
69463;SDS011;56665;41.106;16.688;2024-01-27T09:26:53;42.93;;;24.07;;
69463;SDS011;56665;41.106;16.688;2024-01-27T09:29:57;39.38;;;23.05;;
69463;SDS011;56665;41.106;16.688;2024-01-27T09:33:01;39.28;;;24.30;;
69463;SDS011;56665;41.106;16.688;2024-01-27T09:36:05;41.70;;;23.33;;
69463;SDS011;56665;41.106;16.688;2024-01-27T09:39:08;42.38;;;24.20;;
69463;SDS011;56665;41.106;16.688;2024-01-27T09:42:13;39.03;;;24.00;;
69463;SDS011;56665;41.106;16.688;2024-01-27T09:45:20;39.53;;;22.33;;
69463;SDS011;56665;41.106;16.688;2024-01-27T09:48:26;34.80;;;20.85;;
69463;SDS011;56665;41.106;16.688;2024-01-27T09:51:31;32.70;;;19.80;;
69463;SDS011;56665;41.106;16.688;2024-01-27T09:54:35;35.42;;;21.70;;
69463;SDS011;56665;41.106;16.688;2024-01-27T09:57:39;33.17;;;20.60;;
69463;SDS011;56665;41.106;16.688;2024-01-27T10:00:43;35.60;;;20.88;;
69463;SDS011;56665;41.106;16.688;2024-01-27T10:03:48;36.25;;;20.27;;
69463;SDS011;56665;41.106;16.688;2024-01-27T10:06:52;37.90;;;21.27;;
69463;SDS011;56665;41.106;16.688;2024-01-27T10:09:56;33.28;;;19.52;;
69463;SDS011;56665;41.106;16.688;2024-01-27T10:13:00;37.27;;;20.87;;
69463;SDS011;56665;41.106;16.688;2024-01-27T10:16:07;42.75;;;23.95;;
69463;SDS011;56665;41.106;16.688;2024-01-27T10:19:14;38.20;;;22.23;;
69463;SDS011;56665;41.106;16.688;2024-01-27T10:22:21;36.38;;;21.35;;
69463;SDS011;56665;41.106;16.688;2024-01-27T10:25:25;38.47;;;20.83;;
69463;SDS011;56665;41.106;16.688;2024-01-27T10:28:28;39.17;;;22.73;;
69463;SDS011;56665;41.106;16.688;2024-01-27T10:31:35;35.40;;;20.17;;
69463;SDS011;56665;41.106;16.688;2024-01-27T10:34:39;36.72;;;21.23;;
69463;SDS011;56665;41.106;16.688;2024-01-27T10:37:43;32.50;;;18.40;;
69463;SDS011;56665;41.106;16.688;2024-01-27T10:40:47;30.48;;;18.00;;
69463;SDS011;56665;41.106;16.688;2024-01-27T10:43:52;33.23;;;20.00;;
69463;SDS011;56665;41.106;16.688;2024-01-27T10:46:56;32.50;;;18.77;;
69463;SDS011;56665;41.106;16.688;2024-01-27T10:50:08;30.23;;;19.55;;
69463;SDS011;56665;41.106;16.688;2024-01-27T10:53:22;27.80;;;17.85;;
69463;SDS011;56665;41.106;16.688;2024-01-27T10:56:28;35.65;;;21.10;;
69463;SDS011;56665;41.106;16.688;2024-01-27T10:59:33;36.47;;;22.50;;
69463;SDS011;56665;41.106;16.688;2024-01-27T11:02:38;39.85;;;21.80;;
69463;SDS011;56665;41.106;16.688;2024-01-27T11:05:42;39.92;;;22.13;;
69463;SDS011;56665;41.106;16.688;2024-01-27T11:08:49;37.58;;;23.30;;
69463;SDS011;56665;41.106;16.688;2024-01-27T11:11:53;40.83;;;23.90;;
69463;SDS011;56665;41.106;16.688;2024-01-27T11:14:57;43.50;;;23.20;;
69463;SDS011;56665;41.106;16.688;2024-01-27T11:18:04;38.55;;;22.80;;
69463;SDS011;56665;41.106;16.688;2024-01-27T11:21:08;41.08;;;23.10;;
69463;SDS011;56665;41.106;16.688;2024-01-27T11:24:17;40.08;;;23.50;;
69463;SDS011;56665;41.106;16.688;2024-01-27T11:27:26;45.85;;;24.80;;
69463;SDS011;56665;41.106;16.688;2024-01-27T11:30:32;40.50;;;24.33;;
69463;SDS011;56665;41.106;16.688;2024-01-27T11:33:41;42.33;;;25.83;;
69463;SDS011;56665;41.106;16.688;2024-01-27T11:36:49;43.70;;;25.17;;
69463;SDS011;56665;41.106;16.688;2024-01-27T11:39:52;44.67;;;24.02;;
69463;SDS011;56665;41.106;16.688;2024-01-27T11:43:09;45.05;;;25.20;;
69463;SDS011;56665;41.106;16.688;2024-01-27T11:46:17;43.63;;;24.90;;
69463;SDS011;56665;41.106;16.688;2024-01-27T11:49:20;42.45;;;24.52;;
69463;SDS011;56665;41.106;16.688;2024-01-27T11:52:25;41.70;;;24.83;;
69463;SDS011;56665;41.106;16.688;2024-01-27T11:55:29;50.22;;;28.00;;
69463;SDS011;56665;41.106;16.688;2024-01-27T11:58:33;45.30;;;27.40;;
69463;SDS011;56665;41.106;16.688;2024-01-27T12:01:37;52.63;;;28.30;;
69463;SDS011;56665;41.106;16.688;2024-01-27T12:04:42;44.28;;;25.70;;
69463;SDS011;56665;41.106;16.688;2024-01-27T12:07:46;53.28;;;29.23;;
69463;SDS011;56665;41.106;16.688;2024-01-27T12:10:50;47.80;;;28.88;;
69463;SDS011;56665;41.106;16.688;2024-01-27T12:13:54;52.63;;;27.65;;
69463;SDS011;56665;41.106;16.688;2024-01-27T12:16:58;51.43;;;29.67;;
69463;SDS011;56665;41.106;16.688;2024-01-27T12:20:01;51.28;;;28.83;;
69463;SDS011;56665;41.106;16.688;2024-01-27T12:23:16;131.48;;;64.97;;
69463;SDS011;56665;41.106;16.688;2024-01-27T12:26:29;72.13;;;35.17;;
69463;SDS011;56665;41.106;16.688;2024-01-27T12:29:33;91.00;;;45.10;;
69463;SDS011;56665;41.106;16.688;2024-01-27T12:32:37;83.03;;;43.90;;
69463;SDS011;56665;41.106;16.688;2024-01-27T12:35:41;69.97;;;35.40;;
69463;SDS011;56665;41.106;16.688;2024-01-27T12:38:56;67.20;;;36.78;;
69463;SDS011;56665;41.106;16.688;2024-01-27T12:42:05;65.82;;;34.08;;
69463;SDS011;56665;41.106;16.688;2024-01-27T12:45:08;52.80;;;29.02;;
69463;SDS011;56665;41.106;16.688;2024-01-27T12:48:12;55.57;;;31.30;;
69463;SDS011;56665;41.106;16.688;2024-01-27T12:51:16;61.00;;;32.92;;
69463;SDS011;56665;41.106;16.688;2024-01-27T12:54:20;62.00;;;34.47;;
69463;SDS011;56665;41.106;16.688;2024-01-27T12:57:24;51.83;;;29.50;;
69463;SDS011;56665;41.106;16.688;2024-01-27T13:00:27;56.42;;;30.40;;
69463;SDS011;56665;41.106;16.688;2024-01-27T13:03:31;53.63;;;30.33;;
69463;SDS011;56665;41.106;16.688;2024-01-27T13:06:35;48.42;;;28.23;;
69463;SDS011;56665;41.106;16.688;2024-01-27T13:09:40;53.28;;;31.67;;
69463;SDS011;56665;41.106;16.688;2024-01-27T13:12:44;51.03;;;28.77;;
69463;SDS011;56665;41.106;16.688;2024-01-27T13:15:48;50.38;;;28.20;;
69463;SDS011;56665;41.106;16.688;2024-01-27T13:18:51;47.43;;;27.67;;
69463;SDS011;56665;41.106;16.688;2024-01-27T13:21:55;54.85;;;30.67;;
69463;SDS011;56665;41.106;16.688;2024-01-27T13:24:59;53.42;;;29.90;;
69463;SDS011;56665;41.106;16.688;2024-01-27T13:28:04;53.30;;;29.05;;
69463;SDS011;56665;41.106;16.688;2024-01-27T13:31:10;45.05;;;26.45;;
69463;SDS011;56665;41.106;16.688;2024-01-27T13:34:14;47.17;;;25.20;;
69463;SDS011;56665;41.106;16.688;2024-01-27T13:37:18;52.33;;;27.57;;
69463;SDS011;56665;41.106;16.688;2024-01-27T13:40:22;49.50;;;27.67;;
69463;SDS011;56665;41.106;16.688;2024-01-27T13:43:27;43.63;;;25.67;;
69463;SDS011;56665;41.106;16.688;2024-01-27T13:46:30;51.92;;;26.02;;
69463;SDS011;56665;41.106;16.688;2024-01-27T13:49:34;47.17;;;25.73;;
69463;SDS011;56665;41.106;16.688;2024-01-27T13:52:38;51.20;;;27.17;;
69463;SDS011;56665;41.106;16.688;2024-01-27T13:55:42;47.78;;;25.60;;
69463;SDS011;56665;41.106;16.688;2024-01-27T13:58:47;44.38;;;25.15;;
69463;SDS011;56665;41.106;16.688;2024-01-27T14:01:51;43.00;;;24.15;;
69463;SDS011;56665;41.106;16.688;2024-01-27T14:04:56;46.97;;;25.70;;
69463;SDS011;56665;41.106;16.688;2024-01-27T14:08:00;45.37;;;24.70;;
69463;SDS011;56665;41.106;16.688;2024-01-27T14:11:04;44.40;;;25.25;;
69463;SDS011;56665;41.106;16.688;2024-01-27T14:14:07;43.45;;;24.92;;
69463;SDS011;56665;41.106;16.688;2024-01-27T14:17:11;47.20;;;25.88;;
69463;SDS011;56665;41.106;16.688;2024-01-27T14:20:15;44.78;;;25.20;;
69463;SDS011;56665;41.106;16.688;2024-01-27T14:23:19;42.93;;;24.60;;
69463;SDS011;56665;41.106;16.688;2024-01-27T14:26:23;43.97;;;22.73;;
69463;SDS011;56665;41.106;16.688;2024-01-27T14:29:27;43.13;;;23.38;;
69463;SDS011;56665;41.106;16.688;2024-01-27T14:32:31;48.03;;;26.67;;
69463;SDS011;56665;41.106;16.688;2024-01-27T14:35:34;47.17;;;25.58;;
69463;SDS011;56665;41.106;16.688;2024-01-27T14:38:38;52.07;;;28.20;;
69463;SDS011;56665;41.106;16.688;2024-01-27T14:41:43;53.78;;;28.88;;
69463;SDS011;56665;41.106;16.688;2024-01-27T14:44:48;45.28;;;25.48;;
69463;SDS011;56665;41.106;16.688;2024-01-27T14:47:56;48.60;;;26.10;;
69463;SDS011;56665;41.106;16.688;2024-01-27T14:51:00;48.53;;;26.27;;
69463;SDS011;56665;41.106;16.688;2024-01-27T14:54:04;45.53;;;25.13;;
69463;SDS011;56665;41.106;16.688;2024-01-27T14:57:09;49.10;;;26.13;;
69463;SDS011;56665;41.106;16.688;2024-01-27T15:00:13;49.33;;;25.20;;
69463;SDS011;56665;41.106;16.688;2024-01-27T15:03:22;43.60;;;25.25;;
69463;SDS011;56665;41.106;16.688;2024-01-27T15:06:26;47.15;;;26.60;;
69463;SDS011;56665;41.106;16.688;2024-01-27T15:09:31;47.20;;;26.50;;
69463;SDS011;56665;41.106;16.688;2024-01-27T15:12:34;48.20;;;27.13;;
69463;SDS011;56665;41.106;16.688;2024-01-27T15:15:39;50.17;;;27.50;;
69463;SDS011;56665;41.106;16.688;2024-01-27T15:18:43;52.40;;;27.20;;
69463;SDS011;56665;41.106;16.688;2024-01-27T15:21:47;48.83;;;26.63;;
69463;SDS011;56665;41.106;16.688;2024-01-27T15:24:51;56.63;;;29.57;;
69463;SDS011;56665;41.106;16.688;2024-01-27T15:27:56;43.35;;;25.08;;
69463;SDS011;56665;41.106;16.688;2024-01-27T15:31:00;49.60;;;27.63;;
69463;SDS011;56665;41.106;16.688;2024-01-27T15:34:04;52.03;;;28.92;;
69463;SDS011;56665;41.106;16.688;2024-01-27T15:37:09;50.45;;;26.02;;
69463;SDS011;56665;41.106;16.688;2024-01-27T15:40:13;48.13;;;27.13;;
69463;SDS011;56665;41.106;16.688;2024-01-27T15:43:17;49.92;;;28.35;;
69463;SDS011;56665;41.106;16.688;2024-01-27T15:46:21;51.05;;;27.42;;
69463;SDS011;56665;41.106;16.688;2024-01-27T15:49:25;46.25;;;25.65;;
69463;SDS011;56665;41.106;16.688;2024-01-27T15:52:32;47.50;;;25.02;;
69463;SDS011;56665;41.106;16.688;2024-01-27T15:55:36;46.60;;;25.57;;
69463;SDS011;56665;41.106;16.688;2024-01-27T15:58:40;47.67;;;25.58;;
69463;SDS011;56665;41.106;16.688;2024-01-27T16:01:43;50.65;;;28.20;;
69463;SDS011;56665;41.106;16.688;2024-01-27T16:04:47;47.55;;;26.38;;
69463;SDS011;56665;41.106;16.688;2024-01-27T16:07:51;56.05;;;29.20;;
69463;SDS011;56665;41.106;16.688;2024-01-27T16:10:55;48.03;;;26.23;;
69463;SDS011;56665;41.106;16.688;2024-01-27T16:13:59;51.45;;;27.63;;
69463;SDS011;56665;41.106;16.688;2024-01-27T16:17:03;56.28;;;31.27;;
69463;SDS011;56665;41.106;16.688;2024-01-27T16:20:07;54.13;;;29.48;;
69463;SDS011;56665;41.106;16.688;2024-01-27T16:23:11;49.80;;;28.77;;
69463;SDS011;56665;41.106;16.688;2024-01-27T16:26:15;49.67;;;27.53;;
69463;SDS011;56665;41.106;16.688;2024-01-27T16:29:18;52.90;;;28.90;;
69463;SDS011;56665;41.106;16.688;2024-01-27T16:32:22;55.05;;;30.25;;
69463;SDS011;56665;41.106;16.688;2024-01-27T16:35:26;59.85;;;34.83;;
69463;SDS011;56665;41.106;16.688;2024-01-27T16:38:30;65.43;;;36.60;;
69463;SDS011;56665;41.106;16.688;2024-01-27T16:41:34;61.80;;;33.83;;
69463;SDS011;56665;41.106;16.688;2024-01-27T16:44:37;65.32;;;35.97;;
69463;SDS011;56665;41.106;16.688;2024-01-27T16:47:42;60.33;;;33.17;;
69463;SDS011;56665;41.106;16.688;2024-01-27T16:50:45;59.92;;;32.80;;
69463;SDS011;56665;41.106;16.688;2024-01-27T16:53:49;57.88;;;32.67;;
69463;SDS011;56665;41.106;16.688;2024-01-27T16:56:53;63.60;;;33.50;;
69463;SDS011;56665;41.106;16.688;2024-01-27T16:59:59;57.47;;;31.13;;
69463;SDS011;56665;41.106;16.688;2024-01-27T17:03:03;64.35;;;34.45;;
69463;SDS011;56665;41.106;16.688;2024-01-27T17:06:07;65.80;;;35.55;;
69463;SDS011;56665;41.106;16.688;2024-01-27T17:09:11;67.85;;;36.35;;
69463;SDS011;56665;41.106;16.688;2024-01-27T17:12:17;69.13;;;38.03;;
69463;SDS011;56665;41.106;16.688;2024-01-27T17:15:20;73.90;;;38.42;;
69463;SDS011;56665;41.106;16.688;2024-01-27T17:18:25;69.78;;;37.85;;
69463;SDS011;56665;41.106;16.688;2024-01-27T17:21:28;71.90;;;40.00;;
69463;SDS011;56665;41.106;16.688;2024-01-27T17:24:32;77.03;;;41.40;;
69463;SDS011;56665;41.106;16.688;2024-01-27T17:27:36;72.13;;;39.23;;
69463;SDS011;56665;41.106;16.688;2024-01-27T17:30:40;73.43;;;39.58;;
69463;SDS011;56665;41.106;16.688;2024-01-27T17:33:44;69.97;;;39.20;;
69463;SDS011;56665;41.106;16.688;2024-01-27T17:36:48;72.82;;;39.13;;
69463;SDS011;56665;41.106;16.688;2024-01-27T17:39:52;70.25;;;35.80;;
69463;SDS011;56665;41.106;16.688;2024-01-27T17:42:56;65.77;;;35.77;;
69463;SDS011;56665;41.106;16.688;2024-01-27T17:46:00;62.70;;;33.35;;